createdAt,value
2023-05-17T00:02:48.922Z,79.77
2023-05-17T00:05:54.536Z,78.99
2023-05-17T00:08:58.663Z,79.36
2023-05-17T00:12:02.708Z,80.36
2023-05-17T00:15:07.939Z,81.54
2023-05-17T00:18:12.106Z,81.58
2023-05-17T00:21:17.715Z,83.61
2023-05-17T00:24:21.711Z,83.94
2023-05-17T00:27:25.784Z,84.01
2023-05-17T00:30:29.877Z,85.21
2023-05-17T00:33:33.818Z,85.28
2023-05-17T00:36:39.269Z,85.91
2023-05-17T00:39:43.197Z,86.03
2023-05-17T00:42:47.248Z,85.07
2023-05-17T00:45:52.197Z,87.26
2023-05-17T00:48:57.627Z,87.06
2023-05-17T00:52:03.557Z,87.85
2023-05-17T00:55:08.358Z,88.54
2023-05-17T00:58:13.090Z,89.56
2023-05-17T01:01:17.212Z,88.95
2023-05-17T01:04:21.786Z,90.26
2023-05-17T01:07:27.349Z,89.12
2023-05-17T01:10:39.390Z,88.72
2023-05-17T01:13:53.951Z,88.08
2023-05-17T01:17:01.354Z,87.67
2023-05-17T01:20:11.140Z,89.14
2023-05-17T01:23:32.576Z,88.02
2023-05-17T01:26:44.368Z,91.05
2023-05-17T01:29:51.576Z,91.88
2023-05-17T01:32:59.281Z,90.33
2023-05-17T01:36:03.685Z,90.34
2023-05-17T01:39:08.991Z,91.22
2023-05-17T01:42:22.341Z,89.83
2023-05-17T01:45:30.321Z,88.70
2023-05-17T01:48:41.608Z,88.15
2023-05-17T01:51:50.434Z,87.78
2023-05-17T01:55:01.097Z,87.36
2023-05-17T01:58:09.228Z,86.68
2023-05-17T02:01:15.076Z,87.66
2023-05-17T02:04:20.932Z,86.36
2023-05-17T02:07:25.067Z,85.46
2023-05-17T02:10:32.483Z,84.65
2023-05-17T02:13:38.020Z,84.40
2023-05-17T02:16:42.100Z,84.13
2023-05-17T02:19:46.136Z,84.05
2023-05-17T02:22:50.276Z,83.77
2023-05-17T02:25:54.091Z,83.78
2023-05-17T02:28:59.791Z,83.55
2023-05-17T02:32:03.821Z,83.74
2023-05-17T02:35:08.773Z,83.90
2023-05-17T02:38:12.737Z,84.80
2023-05-17T02:41:18.435Z,84.29
2023-05-17T02:44:26.277Z,84.13
2023-05-17T02:47:30.537Z,84.46
2023-05-17T02:50:34.677Z,84.02
2023-05-17T02:53:38.935Z,83.45
2023-05-17T02:56:44.567Z,83.80
2023-05-17T02:59:50.342Z,84.73
2023-05-17T03:02:54.427Z,84.97
2023-05-17T03:06:02.756Z,84.20
2023-05-17T03:09:07.334Z,85.94
2023-05-17T03:12:12.037Z,85.42
2023-05-17T03:15:18.269Z,84.62
2023-05-17T03:18:23.109Z,85.98
2023-05-17T03:21:27.734Z,89.58
2023-05-17T03:24:32.723Z,88.26
2023-05-17T03:27:38.003Z,90.08
2023-05-17T03:30:44.330Z,90.60
2023-05-17T03:33:48.691Z,90.96
2023-05-17T03:36:52.574Z,91.45
2023-05-17T03:39:56.233Z,90.83
2023-05-17T03:43:00.603Z,91.38
2023-05-17T03:46:06.674Z,89.43
2023-05-17T03:49:10.787Z,89.72
2023-05-17T03:52:15.536Z,90.80
2023-05-17T03:55:19.435Z,89.64
2023-05-17T03:58:23.733Z,90.80
2023-05-17T04:01:29.112Z,90.70
2023-05-17T04:04:33.171Z,89.59
2023-05-17T04:07:37.187Z,88.81
2023-05-17T04:10:42.488Z,89.03
2023-05-17T04:13:46.541Z,88.78
2023-05-17T04:16:52.054Z,88.91
2023-05-17T04:19:56.534Z,87.60
2023-05-17T04:23:01.141Z,89.07
2023-05-17T04:26:07.807Z,88.08
2023-05-17T04:29:15.915Z,88.55
2023-05-17T04:32:21.742Z,86.75
2023-05-17T04:35:26.074Z,88.33
2023-05-17T04:38:32.033Z,88.22
2023-05-17T04:41:36.370Z,88.51
2023-05-17T04:44:42.796Z,87.63
2023-05-17T04:47:50.719Z,88.68
2023-05-17T04:50:55.131Z,89.41
2023-05-17T04:54:01.296Z,90.08
2023-05-17T04:57:07.716Z,88.83
2023-05-17T05:00:34.828Z,87.01
2023-05-17T05:03:43.057Z,87.19
2023-05-17T05:06:49.021Z,87.52
2023-05-17T05:09:53.414Z,87.09
2023-05-17T05:12:59.727Z,86.37
2023-05-17T05:16:05.527Z,85.46
2023-05-17T05:19:11.439Z,85.54
2023-05-17T05:22:16.354Z,84.91
2023-05-17T05:25:21.693Z,84.23
2023-05-17T05:28:25.949Z,84.12
2023-05-17T05:31:31.009Z,83.36
2023-05-17T05:34:40.251Z,83.28
2023-05-17T05:37:44.774Z,82.70
2023-05-17T05:40:49.674Z,82.65
2023-05-17T05:43:53.727Z,83.15
2023-05-17T05:46:57.792Z,83.32
2023-05-17T05:50:06.269Z,84.30
2023-05-17T05:53:18.834Z,85.67
2023-05-17T05:56:28.569Z,84.14
2023-05-17T05:59:32.815Z,85.45
2023-05-17T06:02:37.783Z,85.87
2023-05-17T06:05:43.530Z,84.71
2023-05-17T06:08:47.815Z,83.67
2023-05-17T06:11:54.991Z,81.94
2023-05-17T06:14:59.037Z,81.50
2023-05-17T06:18:03.143Z,81.73
2023-05-17T06:21:08.783Z,82.04
2023-05-17T06:24:12.816Z,81.77
2023-05-17T06:27:16.826Z,80.75
2023-05-17T06:30:21.027Z,79.64
2023-05-17T06:33:25.186Z,79.76
2023-05-17T06:36:32.534Z,80.39
2023-05-17T06:39:36.984Z,78.30
2023-05-17T06:42:41.293Z,78.23
2023-05-17T06:45:45.288Z,79.49
2023-05-17T06:48:51.225Z,77.53
2023-05-17T06:52:02.893Z,76.92
2023-05-17T06:55:07.868Z,77.03
2023-05-17T06:58:12.112Z,77.00
2023-05-17T07:01:16.143Z,77.92
2023-05-17T07:04:20.726Z,78.28
2023-05-17T07:07:26.446Z,78.59
2023-05-17T07:10:30.852Z,78.68
2023-05-17T07:13:35.213Z,80.13
2023-05-17T07:16:39.231Z,81.45
2023-05-17T07:19:43.407Z,81.11
2023-05-17T07:22:49.555Z,82.11
2023-05-17T07:25:53.619Z,82.42
2023-05-17T07:28:57.997Z,83.16
2023-05-17T07:32:01.994Z,82.97
2023-05-17T07:35:06.318Z,82.00
2023-05-17T07:38:12.194Z,82.20
2023-05-17T07:41:17.392Z,84.36
2023-05-17T07:44:22.036Z,84.94
2023-05-17T07:47:26.256Z,85.15
2023-05-17T07:50:31.051Z,86.37
2023-05-17T07:53:36.607Z,89.28
2023-05-17T07:56:40.767Z,90.64
2023-05-17T07:59:44.777Z,90.06
2023-05-17T08:02:48.838Z,90.02
2023-05-17T08:05:52.890Z,90.83
2023-05-17T08:08:58.632Z,90.20
2023-05-17T08:12:02.938Z,90.62
2023-05-17T08:15:07.984Z,92.04
2023-05-17T08:18:12.277Z,91.72
2023-05-17T08:21:16.398Z,91.39
2023-05-17T08:24:21.834Z,91.58
2023-05-17T08:27:27.292Z,93.03
2023-05-17T08:30:31.855Z,93.63
2023-05-17T08:33:36.931Z,93.43
2023-05-17T08:36:41.001Z,94.32
2023-05-17T08:39:46.767Z,95.19
2023-05-17T08:42:52.209Z,95.13
2023-05-17T08:45:58.151Z,95.10
2023-05-17T08:49:04.734Z,92.61
2023-05-17T08:52:11.593Z,95.62
2023-05-17T08:55:18.511Z,94.98
2023-05-17T08:58:27.627Z,94.80
2023-05-17T09:01:33.230Z,95.93
2023-05-17T09:04:38.150Z,96.41
2023-05-17T09:07:42.667Z,97.70
2023-05-17T09:10:48.269Z,100.00
2023-05-17T09:13:52.476Z,100.00
2023-05-17T09:16:58.862Z,100.00
2023-05-17T09:20:03.114Z,100.00
2023-05-17T09:23:09.996Z,100.00
2023-05-17T09:26:15.846Z,100.00
2023-05-17T09:29:21.268Z,100.00
2023-05-17T09:32:25.499Z,100.00
2023-05-17T09:35:31.049Z,100.00
2023-05-17T09:38:35.309Z,100.00
2023-05-17T09:41:47.358Z,100.00
2023-05-17T09:44:54.889Z,100.00
2023-05-17T09:47:59.596Z,100.00
2023-05-17T09:51:03.817Z,100.00
2023-05-17T09:54:08.697Z,100.00
2023-05-17T09:57:14.433Z,100.00
2023-05-17T10:00:19.976Z,100.00
2023-05-17T10:03:24.267Z,100.00
2023-05-17T10:06:44.756Z,100.00
2023-05-17T10:09:51.733Z,100.00
2023-05-17T10:12:57.730Z,100.00
2023-05-17T10:16:03.552Z,100.00
2023-05-17T10:19:08.190Z,100.00
2023-05-17T10:25:23.809Z,100.00
2023-05-17T10:28:29.914Z,100.00
2023-05-17T10:31:35.054Z,100.00
2023-05-17T10:34:40.661Z,99.81
2023-05-17T10:37:44.780Z,99.49
2023-05-17T10:40:50.114Z,99.33
2023-05-17T10:43:57.144Z,98.11
2023-05-17T10:47:02.249Z,99.30
2023-05-17T10:50:13.526Z,100.00
2023-05-17T10:53:17.589Z,100.00
2023-05-17T10:56:23.789Z,100.00
2023-05-17T10:59:32.355Z,100.00
2023-05-17T11:02:41.776Z,100.00
2023-05-17T11:05:48.107Z,100.00
2023-05-17T11:09:15.801Z,100.00
2023-05-17T11:12:32.117Z,100.00
2023-05-17T11:15:39.089Z,100.00
2023-05-17T11:18:49.157Z,100.00
2023-05-17T11:21:53.335Z,100.00
2023-05-17T11:24:59.150Z,100.00
2023-05-17T11:28:09.277Z,100.00
2023-05-17T11:31:14.831Z,100.00
2023-05-17T11:34:20.274Z,99.77
2023-05-17T11:37:28.656Z,99.24
2023-05-17T11:40:33.828Z,100.00
2023-05-17T11:43:38.551Z,100.00
2023-05-17T11:46:45.335Z,100.00
2023-05-17T11:49:54.358Z,100.00
2023-05-17T11:53:00.530Z,100.00
2023-05-17T11:56:05.792Z,100.00
2023-05-17T11:59:10.028Z,100.00
2023-05-17T12:02:28.720Z,100.00
2023-05-17T12:05:32.898Z,100.00
2023-05-17T12:08:38.234Z,100.00
2023-05-17T12:11:43.700Z,100.00
2023-05-17T12:14:48.614Z,100.00
2023-05-17T12:17:56.861Z,100.00
2023-05-17T12:21:01.777Z,100.00
2023-05-17T12:24:06.340Z,100.00
2023-05-17T12:27:10.795Z,100.00
2023-05-17T12:30:18.569Z,100.00
2023-05-17T12:33:24.081Z,100.00
2023-05-17T12:36:30.754Z,100.00
2023-05-17T12:39:34.791Z,100.00
2023-05-17T12:42:41.171Z,100.00
2023-05-17T12:45:45.340Z,100.00
2023-05-17T12:48:52.277Z,100.00
2023-05-17T12:51:56.372Z,100.00
2023-05-17T12:55:01.133Z,100.00
2023-05-17T12:58:05.980Z,100.00
2023-05-17T13:01:14.090Z,100.00
2023-05-17T13:04:20.704Z,100.00
2023-05-17T13:07:26.181Z,100.00
2023-05-17T13:10:30.759Z,100.00
2023-05-17T13:13:35.560Z,100.00
2023-05-17T13:16:40.176Z,100.00
2023-05-17T13:19:45.845Z,100.00
2023-05-17T13:22:50.314Z,100.00
2023-05-17T13:25:54.764Z,100.00
2023-05-17T13:28:58.838Z,100.00
2023-05-17T13:32:03.241Z,100.00
2023-05-17T13:35:09.783Z,100.00
2023-05-17T13:38:13.792Z,100.00
2023-05-17T13:41:17.919Z,99.49
2023-05-17T13:44:22.070Z,100.00
2023-05-17T13:47:26.625Z,100.00
2023-05-17T13:50:32.263Z,100.00
2023-05-17T13:53:36.576Z,100.00
2023-05-17T13:56:40.614Z,100.00
2023-05-17T13:59:45.957Z,100.00
2023-05-17T14:02:50.434Z,100.00
2023-05-17T14:05:56.054Z,100.00
2023-05-17T14:09:01.237Z,100.00
2023-05-17T14:12:05.906Z,100.00
2023-05-17T14:15:11.636Z,100.00
2023-05-17T14:18:15.868Z,100.00
2023-05-17T14:21:21.601Z,100.00
2023-05-17T14:24:25.815Z,100.00
2023-05-17T14:27:29.964Z,100.00
2023-05-17T14:30:34.611Z,100.00
2023-05-17T14:33:38.803Z,100.00
2023-05-17T14:36:44.365Z,100.00
2023-05-17T14:40:05.325Z,100.00
2023-05-17T14:43:10.950Z,100.00
2023-05-17T14:46:15.137Z,100.00
2023-05-17T14:49:19.241Z,100.00
2023-05-17T14:52:24.878Z,100.00
2023-05-17T14:55:29.115Z,100.00
2023-05-17T14:58:33.383Z,100.00
2023-05-17T15:01:37.488Z,100.00
2023-05-17T15:04:41.956Z,100.00
2023-05-17T15:07:47.791Z,100.00
2023-05-17T15:10:52.190Z,100.00
2023-05-17T15:13:56.738Z,100.00
2023-05-17T15:17:00.803Z,100.00
2023-05-17T15:20:05.364Z,100.00
2023-05-17T15:23:11.051Z,100.00
2023-05-17T15:26:15.049Z,100.00
2023-05-17T15:29:19.136Z,100.00
2023-05-17T15:32:23.256Z,100.00
2023-05-17T15:35:28.223Z,100.00
2023-05-17T15:38:33.801Z,100.00
2023-05-17T15:41:37.878Z,100.00
2023-05-17T15:44:41.893Z,100.00
2023-05-17T15:47:46.669Z,100.00
2023-05-17T15:50:50.932Z,100.00
2023-05-17T15:53:57.463Z,100.00
2023-05-17T15:57:01.512Z,100.00
2023-05-17T16:00:06.572Z,100.00
2023-05-17T16:03:10.700Z,100.00
2023-05-17T16:06:16.046Z,100.00
2023-05-17T16:09:21.711Z,100.00
2023-05-17T16:12:25.840Z,100.00
2023-05-17T16:15:29.997Z,100.00
2023-05-17T16:18:34.455Z,100.00
2023-05-17T16:21:39.297Z,100.00
2023-05-17T16:24:44.746Z,100.00
2023-05-17T16:27:49.560Z,100.00
2023-05-17T16:30:54.742Z,100.00
2023-05-17T16:33:58.954Z,100.00
2023-05-17T16:37:04.420Z,100.00
2023-05-17T16:40:11.239Z,100.00
2023-05-17T16:43:16.563Z,100.00
2023-05-17T16:46:24.996Z,100.00
2023-05-17T16:49:30.537Z,100.00
2023-05-17T16:52:34.503Z,100.00
2023-05-17T16:55:40.183Z,100.00
2023-05-17T16:58:44.279Z,100.00
2023-05-17T17:01:48.308Z,100.00
2023-05-17T17:04:52.591Z,100.00
2023-05-17T17:07:56.817Z,100.00
2023-05-17T17:11:02.315Z,100.00
2023-05-17T17:14:07.188Z,100.00
2023-05-17T17:17:11.250Z,100.00
2023-05-17T17:20:15.557Z,100.00
2023-05-17T17:23:19.613Z,100.00
2023-05-17T17:26:25.145Z,100.00
2023-05-17T17:29:29.233Z,100.00
2023-05-17T17:32:33.471Z,100.00
2023-05-17T17:35:37.618Z,100.00
2023-05-17T17:38:41.734Z,100.00
2023-05-17T17:41:47.268Z,100.00
2023-05-17T17:44:51.444Z,100.00
2023-05-17T17:47:55.588Z,100.00
2023-05-17T17:50:59.715Z,100.00
2023-05-17T17:54:05.873Z,100.00
2023-05-17T17:57:11.400Z,100.00
2023-05-17T18:00:16.541Z,100.00
2023-05-17T18:03:20.604Z,100.00
2023-05-17T18:06:25.109Z,100.00
2023-05-17T18:09:29.128Z,100.00
2023-05-17T18:12:34.816Z,100.00
2023-05-17T18:15:40.312Z,100.00
2023-05-17T18:18:44.662Z,100.00
2023-05-17T18:21:50.585Z,100.00
2023-05-17T18:24:54.716Z,100.00
2023-05-17T18:28:00.227Z,100.00
2023-05-17T18:31:04.311Z,100.00
2023-05-17T18:34:08.400Z,100.00
2023-05-17T18:37:12.420Z,100.00
2023-05-17T18:40:16.838Z,100.00
2023-05-17T18:43:22.335Z,100.00
2023-05-17T18:46:26.569Z,100.00
2023-05-17T18:49:30.589Z,100.00
2023-05-17T18:52:34.751Z,100.00
2023-05-17T18:55:38.855Z,100.00
2023-05-17T18:58:46.197Z,100.00
2023-05-17T19:01:50.704Z,100.00
2023-05-17T19:04:54.734Z,100.00
2023-05-17T19:07:58.776Z,100.00
2023-05-17T19:11:04.419Z,100.00
2023-05-17T19:14:09.854Z,100.00
2023-05-17T19:17:14.130Z,100.00
2023-05-17T19:20:18.338Z,100.00
2023-05-17T19:23:23.079Z,100.00
2023-05-17T19:26:27.260Z,100.00
2023-05-17T19:29:33.369Z,100.00
2023-05-17T19:32:38.461Z,100.00
2023-05-17T19:35:42.625Z,100.00
2023-05-17T19:38:46.714Z,100.00
2023-05-17T19:41:50.983Z,100.00
2023-05-17T19:44:56.520Z,100.00
2023-05-17T19:48:00.690Z,100.00
2023-05-17T19:51:04.922Z,100.00
2023-05-17T19:54:08.924Z,100.00
2023-05-17T19:57:13.010Z,100.00
2023-05-17T20:00:19.402Z,100.00
2023-05-17T20:03:23.494Z,100.00
2023-05-17T20:06:27.653Z,100.00
2023-05-17T20:09:32.442Z,100.00
2023-05-17T20:12:36.539Z,100.00
2023-05-17T20:15:42.179Z,100.00
2023-05-17T20:18:46.870Z,100.00
2023-05-17T20:21:50.930Z,100.00
2023-05-17T20:24:57.174Z,100.00
2023-05-17T20:28:02.110Z,100.00
2023-05-17T20:31:07.660Z,100.00
2023-05-17T20:34:12.276Z,100.00
2023-05-17T20:37:16.407Z,100.00
2023-05-17T20:40:21.226Z,100.00
2023-05-17T20:43:29.117Z,100.00
2023-05-17T20:46:35.764Z,100.00
2023-05-17T20:49:40.026Z,100.00
2023-05-17T20:52:44.169Z,100.00
2023-05-17T20:55:48.154Z,100.00
2023-05-17T20:58:52.191Z,100.00
2023-05-17T21:01:57.964Z,100.00
2023-05-17T21:05:03.642Z,100.00
2023-05-17T21:08:08.833Z,100.00
2023-05-17T21:11:15.559Z,100.00
2023-05-17T21:14:19.630Z,100.00
2023-05-17T21:17:25.171Z,100.00
2023-05-17T21:20:29.429Z,100.00
2023-05-17T21:23:33.589Z,100.00
2023-05-17T21:26:40.562Z,100.00
2023-05-17T21:29:45.389Z,100.00
2023-05-17T21:32:50.963Z,100.00
2023-05-17T21:35:55.077Z,100.00
2023-05-17T21:38:59.039Z,100.00
2023-05-17T21:42:03.470Z,100.00
2023-05-17T21:45:08.614Z,100.00
2023-05-17T21:48:14.279Z,100.00
2023-05-17T21:51:18.388Z,100.00
2023-05-17T21:54:22.514Z,100.00
2023-05-17T21:57:26.589Z,100.00
2023-05-17T22:00:30.959Z,100.00
2023-05-17T22:03:36.853Z,100.00
2023-05-17T22:06:40.970Z,100.00
2023-05-17T22:09:45.896Z,100.00
2023-05-17T22:12:50.557Z,100.00
2023-05-17T22:15:57.818Z,100.00
2023-05-17T22:19:04.175Z,100.00
2023-05-17T22:22:08.785Z,100.00
2023-05-17T22:25:13.572Z,100.00
2023-05-17T22:28:18.888Z,100.00
2023-05-17T22:31:23.132Z,100.00
2023-05-17T22:34:28.794Z,100.00
2023-05-17T22:37:33.191Z,100.00
2023-05-17T22:40:37.414Z,100.00
2023-05-17T22:43:42.061Z,100.00
2023-05-17T22:46:47.002Z,100.00
2023-05-17T22:49:53.279Z,100.00
2023-05-17T22:52:58.951Z,100.00
2023-05-17T22:56:02.894Z,100.00
2023-05-17T22:59:06.890Z,100.00
2023-05-17T23:02:11.150Z,100.00
2023-05-17T23:05:16.652Z,100.00
2023-05-17T23:08:22.661Z,100.00
2023-05-17T23:11:26.611Z,100.00
2023-05-17T23:14:30.597Z,100.00
2023-05-17T23:17:35.969Z,100.00
2023-05-17T23:20:42.433Z,100.00
2023-05-17T23:23:47.651Z,100.00
2023-05-17T23:26:51.587Z,100.00
2023-05-17T23:29:56.768Z,100.00
2023-05-17T23:33:02.919Z,100.00
2023-05-17T23:36:09.209Z,100.00
2023-05-17T23:39:13.234Z,100.00
2023-05-17T23:42:17.158Z,100.00
2023-05-17T23:45:21.541Z,100.00
2023-05-17T23:48:25.981Z,100.00
2023-05-17T23:51:33.528Z,100.00
2023-05-17T23:54:37.553Z,100.00
2023-05-17T23:57:42.716Z,100.00
